createdAt,value
2023-09-26T00:00:33.322Z,8.80
2023-09-26T00:03:01.628Z,8.43
2023-09-26T00:05:30.138Z,7.93
2023-09-26T00:08:04.223Z,6.90
2023-09-26T00:10:32.978Z,7.90
2023-09-26T00:13:01.260Z,8.30
2023-09-26T00:15:29.638Z,7.50
2023-09-26T00:17:58.718Z,6.80
2023-09-26T00:20:29.858Z,8.57
2023-09-26T00:22:59.672Z,6.57
2023-09-26T00:25:28.127Z,7.50
2023-09-26T00:27:56.595Z,6.50
2023-09-26T00:30:27.763Z,6.90
2023-09-26T00:32:56.491Z,7.50
2023-09-26T00:35:24.936Z,7.13
2023-09-26T00:37:53.846Z,6.20
2023-09-26T00:40:24.725Z,6.50
2023-09-26T00:42:53.205Z,5.50
2023-09-26T00:45:21.746Z,7.03
2023-09-26T00:47:50.887Z,6.10
2023-09-26T00:50:19.542Z,6.30
2023-09-26T00:52:50.488Z,6.10
2023-09-26T00:55:20.301Z,5.67
2023-09-26T00:57:50.259Z,5.40
2023-09-26T01:00:21.049Z,7.43
2023-09-26T01:02:49.733Z,6.60
2023-09-26T01:05:18.197Z,5.63
2023-09-26T01:07:47.662Z,6.40
2023-09-26T01:10:16.016Z,6.53
2023-09-26T01:12:45.333Z,6.80
2023-09-26T01:15:15.033Z,6.30
2023-09-26T01:17:43.678Z,8.00
2023-09-26T01:20:17.762Z,6.40
2023-09-26T01:22:47.761Z,7.20
2023-09-26T01:25:19.334Z,7.50
2023-09-26T01:27:48.291Z,7.00
2023-09-26T01:30:18.133Z,6.90
2023-09-26T01:32:47.734Z,7.60
2023-09-26T01:35:15.166Z,7.80
2023-09-26T01:37:44.318Z,7.93
2023-09-26T01:40:14.256Z,8.27
2023-09-26T01:42:43.946Z,7.90
2023-09-26T01:45:12.591Z,8.13
2023-09-26T01:47:47.525Z,8.70
2023-09-26T01:50:16.708Z,8.43
2023-09-26T01:52:45.809Z,7.47
2023-09-26T01:55:15.630Z,7.80
2023-09-26T01:57:45.478Z,7.70
2023-09-26T02:00:15.286Z,7.70
2023-09-26T02:02:45.359Z,7.87
2023-09-26T02:05:16.266Z,8.37
2023-09-26T02:07:44.657Z,7.60
2023-09-26T02:10:12.964Z,8.27
2023-09-26T02:12:44.379Z,8.63
2023-09-26T02:15:16.601Z,8.40
2023-09-26T02:17:45.952Z,7.47
2023-09-26T02:20:18.104Z,7.03
2023-09-26T02:22:49.309Z,7.13
2023-09-26T02:25:20.118Z,7.43
2023-09-26T02:27:50.645Z,7.20
2023-09-26T02:30:22.039Z,6.93
2023-09-26T02:32:50.392Z,7.23
2023-09-26T02:35:20.883Z,6.77
2023-09-26T02:37:49.804Z,7.33
2023-09-26T02:40:19.134Z,6.87
2023-09-26T02:42:47.920Z,6.90
2023-09-26T02:45:16.348Z,6.70
2023-09-26T02:47:46.343Z,7.23
2023-09-26T02:50:15.381Z,7.27
2023-09-26T02:52:45.066Z,7.30
2023-09-26T02:55:13.724Z,7.57
2023-09-26T02:57:42.204Z,6.37
2023-09-26T03:00:17.545Z,7.30
2023-09-26T03:02:49.313Z,6.50
2023-09-26T03:05:18.964Z,7.23
2023-09-26T03:07:51.050Z,6.87
2023-09-26T03:10:19.552Z,7.10
2023-09-26T03:12:49.818Z,6.97
2023-09-26T03:15:18.786Z,6.77
2023-09-26T03:17:49.016Z,6.70
2023-09-26T03:20:18.243Z,6.57
2023-09-26T03:22:46.570Z,7.37
2023-09-26T03:25:15.020Z,6.47
2023-09-26T03:27:43.553Z,7.13
2023-09-26T03:30:12.473Z,7.20
2023-09-26T03:32:40.765Z,7.20
2023-09-26T03:35:12.145Z,6.97
2023-09-26T03:37:40.920Z,6.77
2023-09-26T03:40:10.995Z,8.00
2023-09-26T03:42:40.042Z,6.47
2023-09-26T03:45:09.616Z,6.90
2023-09-26T03:47:38.050Z,6.63
2023-09-26T03:50:07.515Z,6.63
2023-09-26T03:52:37.316Z,6.87
2023-09-26T03:55:06.071Z,6.87
2023-09-26T03:57:34.468Z,7.07
2023-09-26T04:00:08.665Z,6.17
2023-09-26T04:02:40.047Z,6.40
2023-09-26T04:05:08.901Z,9.00
2023-09-26T04:07:38.758Z,6.63
2023-09-26T04:10:08.405Z,8.70
2023-09-26T04:12:36.783Z,6.77
2023-09-26T04:15:06.365Z,7.03
2023-09-26T04:17:34.651Z,7.87
2023-09-26T04:20:23.156Z,8.07
2023-09-26T04:23:00.906Z,7.80
2023-09-26T04:25:31.410Z,8.73
2023-09-26T04:28:00.101Z,7.60
2023-09-26T04:30:28.630Z,7.53
2023-09-26T04:32:56.866Z,7.03
2023-09-26T04:35:25.256Z,8.03
2023-09-26T04:37:54.661Z,9.53
2023-09-26T04:40:24.394Z,8.80
2023-09-26T04:42:53.452Z,7.10
2023-09-26T04:45:21.898Z,7.80
2023-09-26T04:47:50.244Z,7.30
2023-09-26T04:50:18.579Z,8.40
2023-09-26T04:52:46.859Z,8.17
2023-09-26T04:55:15.424Z,8.43
2023-09-26T04:57:45.368Z,8.60
2023-09-26T05:00:18.515Z,7.47
2023-09-26T05:02:47.325Z,8.17
2023-09-26T05:05:15.785Z,7.13
2023-09-26T05:07:44.914Z,7.83
2023-09-26T05:10:14.679Z,7.70
2023-09-26T05:12:43.609Z,8.77
2023-09-26T05:15:14.965Z,8.63
2023-09-26T05:17:44.045Z,7.53
2023-09-26T05:20:13.178Z,9.40
2023-09-26T05:22:44.499Z,10.40
2023-09-26T05:25:12.928Z,8.40
2023-09-26T05:27:42.666Z,8.20
2023-09-26T05:30:13.537Z,8.30
2023-09-26T05:32:43.782Z,9.10
2023-09-26T05:35:12.317Z,9.43
2023-09-26T05:37:40.927Z,9.33
2023-09-26T05:40:10.764Z,7.97
2023-09-26T05:42:41.093Z,9.13
2023-09-26T05:45:11.129Z,8.27
2023-09-26T05:47:41.184Z,9.53
2023-09-26T05:50:10.076Z,8.30
2023-09-26T05:52:38.390Z,8.33
2023-09-26T05:55:07.629Z,7.70
2023-09-26T05:57:35.877Z,6.77
2023-09-26T06:00:05.842Z,7.30
2023-09-26T06:02:40.637Z,8.40
2023-09-26T06:05:09.799Z,7.70
2023-09-26T06:07:38.221Z,7.53
2023-09-26T06:10:10.466Z,6.50
2023-09-26T06:12:39.544Z,9.07
2023-09-26T06:15:10.557Z,6.83
2023-09-26T06:17:42.557Z,7.67
2023-09-26T06:20:13.306Z,7.93
2023-09-26T06:22:41.780Z,6.93
2023-09-26T06:25:12.072Z,6.90
2023-09-26T06:27:40.748Z,7.63
2023-09-26T06:30:11.675Z,7.90
2023-09-26T06:32:42.281Z,7.30
2023-09-26T06:35:11.985Z,7.07
2023-09-26T06:37:40.622Z,6.37
2023-09-26T06:40:10.180Z,6.77
2023-09-26T06:42:40.397Z,6.60
2023-09-26T06:45:11.172Z,6.43
2023-09-26T06:47:39.937Z,7.13
2023-09-26T06:50:13.678Z,7.00
2023-09-26T06:52:42.085Z,6.43
2023-09-26T06:55:12.469Z,6.33
2023-09-26T06:57:42.262Z,7.87
2023-09-26T07:00:14.027Z,7.40
2023-09-26T07:02:42.457Z,7.20
2023-09-26T07:05:13.172Z,6.83
2023-09-26T07:07:41.839Z,6.63
2023-09-26T07:10:11.741Z,6.83
2023-09-26T07:12:41.185Z,6.93
2023-09-26T07:15:13.201Z,7.10
2023-09-26T07:17:44.347Z,6.93
2023-09-26T07:20:16.465Z,7.20
2023-09-26T07:22:45.029Z,7.07
2023-09-26T07:25:14.023Z,6.43
2023-09-26T07:27:44.497Z,6.77
2023-09-26T07:30:14.049Z,6.83
2023-09-26T07:32:42.327Z,7.57
2023-09-26T07:35:11.029Z,6.10
2023-09-26T07:37:40.638Z,8.90
2023-09-26T07:40:10.728Z,8.07
2023-09-26T07:42:40.869Z,6.73
2023-09-26T07:45:10.198Z,6.80
2023-09-26T07:47:38.976Z,6.47
2023-09-26T07:50:08.540Z,6.70
2023-09-26T07:52:37.110Z,6.73
2023-09-26T07:55:07.913Z,6.30
2023-09-26T07:57:36.232Z,6.60
2023-09-26T08:00:23.516Z,5.70
2023-09-26T08:02:51.842Z,5.77
2023-09-26T08:05:20.618Z,6.03
2023-09-26T08:07:49.405Z,7.30
2023-09-26T08:10:19.270Z,6.63
2023-09-26T08:12:47.786Z,5.73
2023-09-26T08:15:16.663Z,7.57
2023-09-26T08:17:44.948Z,7.27
2023-09-26T08:20:15.292Z,6.33
2023-09-26T08:22:45.070Z,5.60
2023-09-26T08:25:13.429Z,7.00
2023-09-26T08:27:43.304Z,6.50
2023-09-26T08:30:13.226Z,5.73
2023-09-26T08:32:41.773Z,6.40
2023-09-26T08:35:11.560Z,6.70
2023-09-26T08:37:41.106Z,6.70
2023-09-26T08:40:12.335Z,6.10
2023-09-26T08:42:46.920Z,5.73
2023-09-26T08:45:16.353Z,5.77
2023-09-26T08:47:46.038Z,6.10
2023-09-26T08:50:14.791Z,6.50
2023-09-26T08:52:44.102Z,6.70
2023-09-26T08:55:12.550Z,5.60
2023-09-26T08:57:42.334Z,5.57
2023-09-26T09:00:14.927Z,6.17
2023-09-26T09:02:43.326Z,6.50
2023-09-26T09:05:12.212Z,5.47
2023-09-26T09:07:41.514Z,6.10
2023-09-26T09:10:12.426Z,5.97
2023-09-26T09:12:42.372Z,5.50
2023-09-26T09:15:25.360Z,6.10
2023-09-26T09:17:54.659Z,5.80
2023-09-26T09:20:34.139Z,6.40
2023-09-26T09:23:03.954Z,7.10
2023-09-26T09:25:33.171Z,6.30
2023-09-26T09:28:02.129Z,6.63
2023-09-26T09:30:38.077Z,5.47
2023-09-26T09:33:08.534Z,6.50
2023-09-26T09:35:37.014Z,6.10
2023-09-26T09:38:09.910Z,6.33
2023-09-26T09:40:39.418Z,6.17
2023-09-26T09:43:07.775Z,6.77
2023-09-26T09:45:38.079Z,5.97
2023-09-26T09:48:10.967Z,5.90
2023-09-26T09:50:39.628Z,6.30
2023-09-26T09:53:08.551Z,5.70
2023-09-26T09:55:40.188Z,6.63
2023-09-26T09:58:13.537Z,7.30
2023-09-26T10:00:43.357Z,6.83
2023-09-26T10:03:13.059Z,6.67
2023-09-26T10:05:43.770Z,8.07
2023-09-26T10:08:12.540Z,7.47
2023-09-26T10:10:43.170Z,6.23
2023-09-26T10:16:06.705Z,7.07
2023-09-26T10:18:38.456Z,8.00
2023-09-26T10:21:20.941Z,7.20
2023-09-26T10:24:22.696Z,6.83
2023-09-26T10:26:53.022Z,7.23
2023-09-26T10:29:26.700Z,7.77
2023-09-26T10:31:59.126Z,6.87
2023-09-26T10:34:51.303Z,7.50
2023-09-26T10:37:22.368Z,6.97
2023-09-26T10:39:51.194Z,6.53
2023-09-26T10:45:10.736Z,6.77
2023-09-26T10:47:42.051Z,6.70
2023-09-26T10:50:13.426Z,7.60
2023-09-26T10:52:48.059Z,6.10
2023-09-26T10:55:19.516Z,6.70
2023-09-26T10:57:51.707Z,6.43
2023-09-26T11:00:20.356Z,6.83
2023-09-26T11:02:50.455Z,7.50
2023-09-26T11:05:19.653Z,6.40
2023-09-26T11:07:48.366Z,6.00
2023-09-26T11:10:17.968Z,7.20
2023-09-26T11:12:46.445Z,7.23
2023-09-26T11:17:52.065Z,7.53
2023-09-26T11:20:20.694Z,6.57
2023-09-26T11:22:52.162Z,6.40
2023-09-26T11:25:20.664Z,7.50
2023-09-26T11:27:49.991Z,6.90
2023-09-26T11:30:21.658Z,6.03
2023-09-26T11:32:55.187Z,5.90
2023-09-26T11:35:25.430Z,5.93
2023-09-26T11:37:55.111Z,6.87
2023-09-26T11:40:25.037Z,6.70
2023-09-26T11:42:57.137Z,7.07
2023-09-26T11:45:27.660Z,6.50
2023-09-26T11:47:58.727Z,8.20
2023-09-26T11:50:27.958Z,6.33
2023-09-26T11:52:59.277Z,7.43
2023-09-26T11:55:27.747Z,6.70
2023-09-26T11:57:56.761Z,6.73
2023-09-26T12:00:25.604Z,6.40
2023-09-26T12:02:54.303Z,6.73
2023-09-26T12:05:24.725Z,6.70
2023-09-26T12:07:53.275Z,6.80
2023-09-26T12:10:21.973Z,7.53
2023-09-26T12:12:50.177Z,6.87
2023-09-26T12:15:21.198Z,6.33
2023-09-26T12:17:50.441Z,6.23
2023-09-26T12:20:22.813Z,6.60
2023-09-26T12:22:53.575Z,6.40
2023-09-26T12:25:24.292Z,6.60
2023-09-26T12:27:53.663Z,6.80
2023-09-26T12:30:22.629Z,7.10
2023-09-26T12:32:51.336Z,6.80
2023-09-26T12:35:20.111Z,6.90
2023-09-26T12:37:49.158Z,6.83
2023-09-26T12:40:18.976Z,6.07
2023-09-26T12:42:47.284Z,5.50
2023-09-26T12:45:15.630Z,7.23
2023-09-26T12:47:43.985Z,6.87
2023-09-26T12:50:12.474Z,6.43
2023-09-26T12:52:42.285Z,8.10
2023-09-26T12:55:12.048Z,6.03
2023-09-26T12:57:41.971Z,5.50
2023-09-26T13:00:12.463Z,5.77
2023-09-26T13:02:41.729Z,6.67
2023-09-26T13:05:11.039Z,7.30
2023-09-26T13:07:39.768Z,6.93
2023-09-26T13:10:10.019Z,6.50
2023-09-26T13:12:39.611Z,6.90
2023-09-26T13:15:10.386Z,7.50
2023-09-26T13:17:39.029Z,6.70
2023-09-26T13:20:12.109Z,7.77
2023-09-26T13:22:41.127Z,6.27
2023-09-26T13:25:10.530Z,6.60
2023-09-26T13:27:38.853Z,8.00
2023-09-26T13:30:10.075Z,6.30
2023-09-26T13:32:38.420Z,6.90
2023-09-26T13:35:07.744Z,6.60
2023-09-26T13:37:37.938Z,7.20
2023-09-26T13:40:07.931Z,6.37
2023-09-26T13:42:36.370Z,6.17
2023-09-26T13:45:05.814Z,7.80
2023-09-26T13:47:36.636Z,6.93
2023-09-26T13:50:05.719Z,6.43
2023-09-26T13:52:34.021Z,6.63
2023-09-26T13:55:02.255Z,6.97
2023-09-26T13:57:30.510Z,6.70
2023-09-26T13:59:58.868Z,5.80
2023-09-26T14:02:27.248Z,6.27
2023-09-26T14:05:16.237Z,7.27
2023-09-26T14:07:45.121Z,6.73
2023-09-26T14:10:13.376Z,7.17
2023-09-26T14:12:41.872Z,6.40
2023-09-26T14:15:11.299Z,7.43
2023-09-26T14:17:39.549Z,6.27
2023-09-26T14:20:10.407Z,7.13
2023-09-26T14:22:40.242Z,6.43
2023-09-26T14:25:10.779Z,6.80
2023-09-26T14:27:40.322Z,7.30
2023-09-26T14:30:12.468Z,8.47
2023-09-26T14:32:42.439Z,7.43
2023-09-26T14:35:12.830Z,6.87
2023-09-26T14:37:41.261Z,7.40
2023-09-26T14:40:10.772Z,7.07
2023-09-26T14:42:39.330Z,6.93
2023-09-26T14:45:08.957Z,7.03
2023-09-26T14:47:37.617Z,7.37
2023-09-26T14:50:07.892Z,8.33
2023-09-26T14:52:38.265Z,7.00
2023-09-26T14:55:08.421Z,7.47
2023-09-26T14:57:36.967Z,6.37
2023-09-26T15:00:06.956Z,6.60
2023-09-26T15:02:35.456Z,7.23
2023-09-26T15:05:04.572Z,7.20
2023-09-26T15:07:33.134Z,7.90
2023-09-26T15:10:02.756Z,7.83
2023-09-26T15:12:32.889Z,8.67
2023-09-26T15:15:01.369Z,8.40
2023-09-26T15:17:29.835Z,8.10
2023-09-26T15:19:58.218Z,7.63
2023-09-26T15:22:26.486Z,7.47
2023-09-26T15:24:54.821Z,8.23
2023-09-26T15:27:24.704Z,6.57
2023-09-26T15:29:53.007Z,7.07
2023-09-26T15:32:21.269Z,7.40
2023-09-26T15:34:49.854Z,6.47
2023-09-26T15:37:18.168Z,6.70
2023-09-26T15:39:46.335Z,7.17
2023-09-26T15:42:14.607Z,7.07
2023-09-26T15:44:44.232Z,7.67
2023-09-26T15:47:11.729Z,7.33
2023-09-26T15:49:50.107Z,7.63
2023-09-26T15:52:19.971Z,6.67
2023-09-26T15:54:48.147Z,7.70
2023-09-26T15:57:16.475Z,8.30
2023-09-26T15:59:46.150Z,6.67
2023-09-26T16:02:14.611Z,6.47
2023-09-26T16:04:42.989Z,6.60
2023-09-26T16:07:11.288Z,6.60
2023-09-26T16:09:39.960Z,7.27
2023-09-26T16:12:09.269Z,7.73
2023-09-26T16:14:38.388Z,7.00
2023-09-26T16:17:08.035Z,6.30
2023-09-26T16:19:36.347Z,7.17
2023-09-26T16:22:04.689Z,7.70
2023-09-26T16:24:32.939Z,6.47
2023-09-26T16:27:02.226Z,6.47
2023-09-26T16:29:30.827Z,6.80
2023-09-26T16:31:59.315Z,7.37
2023-09-26T16:34:29.015Z,7.77
2023-09-26T16:36:57.301Z,7.73
2023-09-26T16:39:25.634Z,7.03
2023-09-26T16:41:54.659Z,7.90
2023-09-26T16:44:23.340Z,8.60
2023-09-26T16:46:51.766Z,7.87
2023-09-26T16:49:20.546Z,8.20
2023-09-26T16:51:50.664Z,7.40
2023-09-26T16:54:19.507Z,8.13
2023-09-26T16:56:47.819Z,8.37
2023-09-26T16:59:16.296Z,9.37
2023-09-26T17:01:44.788Z,7.60
2023-09-26T17:04:14.122Z,7.30
2023-09-26T17:06:44.376Z,7.00
2023-09-26T17:09:14.027Z,7.97
2023-09-26T17:11:42.455Z,8.70
2023-09-26T17:14:11.429Z,7.83
2023-09-26T17:16:39.886Z,7.53
2023-09-26T17:19:08.470Z,8.10
2023-09-26T17:21:36.898Z,7.47
2023-09-26T17:26:35.223Z,7.97
2023-09-26T17:29:03.603Z,8.13
2023-09-26T17:31:32.162Z,7.73
2023-09-26T17:34:00.656Z,8.60
2023-09-26T17:36:28.869Z,7.83
2023-09-26T17:38:57.507Z,8.00
2023-09-26T17:41:26.589Z,8.00
2023-09-26T17:43:56.410Z,8.00
2023-09-26T17:46:25.082Z,15.50
2023-09-26T17:48:53.531Z,8.67
2023-09-26T17:51:22.270Z,10.57
2023-09-26T17:53:51.121Z,9.10
2023-09-26T17:56:19.526Z,11.80
2023-09-26T17:58:47.887Z,8.17
2023-09-26T18:01:17.644Z,7.70
2023-09-26T18:03:45.923Z,9.13
2023-09-26T18:06:14.642Z,8.73
2023-09-26T18:08:44.747Z,8.50
2023-09-26T18:11:13.657Z,8.17
2023-09-26T18:13:42.208Z,7.97
2023-09-26T18:16:10.536Z,9.00
2023-09-26T18:18:40.280Z,9.50
2023-09-26T18:21:08.531Z,9.43
2023-09-26T18:23:36.860Z,8.37
2023-09-26T18:26:07.004Z,9.10
2023-09-26T18:28:35.613Z,7.77
2023-09-26T18:31:05.770Z,8.33
2023-09-26T18:33:34.877Z,8.47
2023-09-26T18:36:10.593Z,8.83
2023-09-26T18:38:39.267Z,8.60
2023-09-26T18:41:07.890Z,8.83
2023-09-26T18:43:36.305Z,8.47
2023-09-26T18:46:04.732Z,8.30
2023-09-26T18:48:33.097Z,8.03
2023-09-26T18:51:04.525Z,7.80
2023-09-26T18:53:34.302Z,8.20
2023-09-26T18:56:03.070Z,8.20
2023-09-26T18:58:31.488Z,7.17
2023-09-26T19:01:00.309Z,7.33
2023-09-26T19:03:29.226Z,7.83
2023-09-26T19:06:02.031Z,8.40
2023-09-26T19:08:30.462Z,6.23
2023-09-26T19:11:00.359Z,8.07
2023-09-26T19:13:28.573Z,6.97
2023-09-26T19:15:57.038Z,8.13
2023-09-26T19:18:25.331Z,8.43
2023-09-26T19:20:55.091Z,8.97
2023-09-26T19:23:23.360Z,8.63
2023-09-26T19:25:52.047Z,7.60
2023-09-26T19:28:21.807Z,6.90
2023-09-26T19:30:50.661Z,7.77
2023-09-26T19:33:19.079Z,7.00
2023-09-26T19:35:47.424Z,7.63
2023-09-26T19:38:16.771Z,7.10
2023-09-26T19:40:45.072Z,8.17
2023-09-26T19:43:13.526Z,8.57
2023-09-26T19:45:43.186Z,8.63
2023-09-26T19:48:11.692Z,8.20
2023-09-26T19:50:40.219Z,8.30
2023-09-26T19:53:08.523Z,8.40
2023-09-26T19:55:36.776Z,8.97
2023-09-26T19:58:05.201Z,9.10
2023-09-26T20:00:34.975Z,8.70
2023-09-26T20:03:04.849Z,9.13
2023-09-26T20:05:33.339Z,8.63
2023-09-26T20:08:02.598Z,8.57
2023-09-26T20:10:31.004Z,8.50
2023-09-26T20:12:59.247Z,8.20
2023-09-26T20:15:27.779Z,8.70
2023-09-26T20:17:56.057Z,8.07
2023-09-26T20:20:26.798Z,10.17
2023-09-26T20:22:55.274Z,8.77
2023-09-26T20:25:23.846Z,9.40
2023-09-26T20:27:53.314Z,9.37
2023-09-26T20:30:23.234Z,8.20
2023-09-26T20:32:51.674Z,8.20
2023-09-26T20:35:20.013Z,8.80
2023-09-26T20:37:49.714Z,8.90
2023-09-26T20:40:18.127Z,7.70
2023-09-26T20:42:46.404Z,7.97
2023-09-26T20:45:14.869Z,7.80
2023-09-26T20:47:43.102Z,7.37
2023-09-26T20:50:13.909Z,6.93
2023-09-26T20:52:42.270Z,7.00
2023-09-26T20:55:12.517Z,8.50
2023-09-26T20:57:40.914Z,7.00
2023-09-26T21:00:10.777Z,7.23
2023-09-26T21:02:39.229Z,7.87
2023-09-26T21:05:08.846Z,7.80
2023-09-26T21:07:37.370Z,8.20
2023-09-26T21:10:06.169Z,7.37
2023-09-26T21:12:35.841Z,7.27
2023-09-26T21:15:04.328Z,8.53
2023-09-26T21:17:32.570Z,7.00
2023-09-26T21:20:00.930Z,7.43
2023-09-26T21:22:29.248Z,6.97
2023-09-26T21:24:57.591Z,8.30
2023-09-26T21:27:25.906Z,8.33
2023-09-26T21:29:55.670Z,6.70
2023-09-26T21:32:23.998Z,7.87
2023-09-26T21:34:52.718Z,7.00
2023-09-26T21:37:21.058Z,7.80
2023-09-26T21:39:49.397Z,6.83
2023-09-26T21:42:17.743Z,7.63
2023-09-26T21:44:46.222Z,6.70
2023-09-26T21:47:15.943Z,5.77
2023-09-26T21:49:44.249Z,6.33
2023-09-26T21:52:12.486Z,5.80
2023-09-26T21:54:40.836Z,6.87
2023-09-26T21:57:09.186Z,6.20
2023-09-26T21:59:37.423Z,6.77
2023-09-26T22:02:06.899Z,5.47
2023-09-26T22:04:36.653Z,5.80
2023-09-26T22:07:05.398Z,6.43
2023-09-26T22:09:33.718Z,4.80
2023-09-26T22:12:02.080Z,6.40
2023-09-26T22:14:30.871Z,5.80
2023-09-26T22:16:59.361Z,5.83
2023-09-26T22:19:27.763Z,6.17
2023-09-26T22:21:57.658Z,5.40
2023-09-26T22:24:25.929Z,6.10
2023-09-26T22:26:54.170Z,6.03
2023-09-26T22:29:22.608Z,5.40
2023-09-26T22:31:51.538Z,5.90
2023-09-26T22:34:19.967Z,5.10
2023-09-26T22:36:48.273Z,6.23
2023-09-26T22:39:18.010Z,5.30
2023-09-26T22:41:46.206Z,5.77
2023-09-26T22:44:14.523Z,6.10
2023-09-26T22:46:43.328Z,5.73
2023-09-26T22:49:11.659Z,6.20
2023-09-26T22:51:40.104Z,6.00
2023-09-26T22:54:08.442Z,5.90
2023-09-26T22:56:38.197Z,5.20
2023-09-26T22:59:06.628Z,5.80
2023-09-26T23:01:34.864Z,5.83
2023-09-26T23:04:03.492Z,5.33
2023-09-26T23:06:32.203Z,5.40
2023-09-26T23:09:00.502Z,6.23
2023-09-26T23:11:29.098Z,6.20
2023-09-26T23:13:58.817Z,6.20
2023-09-26T23:16:28.238Z,5.40
2023-09-26T23:18:56.578Z,5.50
2023-09-26T23:21:25.562Z,6.70
2023-09-26T23:23:54.141Z,5.63
2023-09-26T23:26:22.440Z,6.87
2023-09-26T23:28:51.137Z,5.43
2023-09-26T23:31:21.074Z,6.07
2023-09-26T23:33:51.220Z,6.30
2023-09-26T23:36:19.527Z,4.93
2023-09-26T23:38:47.840Z,6.00
2023-09-26T23:41:16.286Z,6.47
2023-09-26T23:43:44.653Z,5.97
2023-09-26T23:46:13.029Z,5.60
2023-09-26T23:48:42.660Z,5.20
2023-09-26T23:51:13.950Z,5.80
2023-09-26T23:53:42.560Z,5.63
2023-09-26T23:56:11.129Z,5.70
2023-09-26T23:58:40.043Z,6.40
